sensor_id;sensor_type;location;lat;lon;timestamp;P1;durP1;ratioP1;P2;durP2;ratioP2
75297;SDS011;63896;45.990;18.688;2023-05-29T00:01:31;11.68;;;5.60;;
75297;SDS011;63896;45.990;18.688;2023-05-29T00:04:35;10.30;;;5.78;;
75297;SDS011;63896;45.990;18.688;2023-05-29T00:07:39;10.23;;;5.78;;
75297;SDS011;63896;45.990;18.688;2023-05-29T00:10:43;9.40;;;5.40;;
75297;SDS011;63896;45.990;18.688;2023-05-29T00:13:46;11.45;;;5.03;;
75297;SDS011;63896;45.990;18.688;2023-05-29T00:16:49;9.98;;;4.47;;
75297;SDS011;63896;45.990;18.688;2023-05-29T00:19:53;6.43;;;4.32;;
75297;SDS011;63896;45.990;18.688;2023-05-29T00:22:57;6.88;;;4.53;;
75297;SDS011;63896;45.990;18.688;2023-05-29T00:25:59;8.43;;;5.00;;
75297;SDS011;63896;45.990;18.688;2023-05-29T00:29:02;9.05;;;4.97;;
75297;SDS011;63896;45.990;18.688;2023-05-29T00:32:07;9.88;;;5.18;;
75297;SDS011;63896;45.990;18.688;2023-05-29T00:35:10;10.25;;;5.55;;
75297;SDS011;63896;45.990;18.688;2023-05-29T00:38:13;10.13;;;5.70;;
75297;SDS011;63896;45.990;18.688;2023-05-29T00:41:16;9.47;;;6.10;;
75297;SDS011;63896;45.990;18.688;2023-05-29T00:44:20;10.05;;;5.72;;
75297;SDS011;63896;45.990;18.688;2023-05-29T00:47:23;12.93;;;6.30;;
75297;SDS011;63896;45.990;18.688;2023-05-29T00:50:29;8.57;;;6.10;;
75297;SDS011;63896;45.990;18.688;2023-05-29T00:53:32;9.27;;;6.00;;
75297;SDS011;63896;45.990;18.688;2023-05-29T00:56:38;14.10;;;6.93;;
75297;SDS011;63896;45.990;18.688;2023-05-29T00:59:45;13.45;;;6.72;;
75297;SDS011;63896;45.990;18.688;2023-05-29T01:02:49;9.10;;;6.15;;
75297;SDS011;63896;45.990;18.688;2023-05-29T01:05:55;10.95;;;6.00;;
75297;SDS011;63896;45.990;18.688;2023-05-29T01:09:00;9.00;;;5.88;;
75297;SDS011;63896;45.990;18.688;2023-05-29T01:25:46;10.70;;;5.85;;
75297;SDS011;63896;45.990;18.688;2023-05-29T01:29:02;11.87;;;6.57;;
75297;SDS011;63896;45.990;18.688;2023-05-29T01:32:09;10.55;;;5.45;;
75297;SDS011;63896;45.990;18.688;2023-05-29T01:35:13;8.77;;;5.40;;
75297;SDS011;63896;45.990;18.688;2023-05-29T01:38:16;11.65;;;5.43;;
75297;SDS011;63896;45.990;18.688;2023-05-29T01:41:19;9.63;;;5.40;;
75297;SDS011;63896;45.990;18.688;2023-05-29T01:44:23;11.80;;;5.63;;
75297;SDS011;63896;45.990;18.688;2023-05-29T01:47:27;8.52;;;5.30;;
75297;SDS011;63896;45.990;18.688;2023-05-29T01:50:30;7.50;;;5.00;;
75297;SDS011;63896;45.990;18.688;2023-05-29T01:53:33;8.00;;;5.75;;
75297;SDS011;63896;45.990;18.688;2023-05-29T01:56:36;12.00;;;6.07;;
75297;SDS011;63896;45.990;18.688;2023-05-29T01:59:41;8.00;;;5.77;;
75297;SDS011;63896;45.990;18.688;2023-05-29T02:02:44;9.10;;;6.03;;
75297;SDS011;63896;45.990;18.688;2023-05-29T02:05:47;9.27;;;6.22;;
75297;SDS011;63896;45.990;18.688;2023-05-29T02:08:50;11.20;;;6.72;;
75297;SDS011;63896;45.990;18.688;2023-05-29T02:11:54;10.27;;;7.03;;
75297;SDS011;63896;45.990;18.688;2023-05-29T02:14:57;9.13;;;5.90;;
75297;SDS011;63896;45.990;18.688;2023-05-29T02:18:00;10.40;;;6.93;;
75297;SDS011;63896;45.990;18.688;2023-05-29T02:21:04;9.85;;;6.35;;
75297;SDS011;63896;45.990;18.688;2023-05-29T02:24:07;12.63;;;6.55;;
75297;SDS011;63896;45.990;18.688;2023-05-29T02:27:10;9.95;;;6.70;;
75297;SDS011;63896;45.990;18.688;2023-05-29T02:30:13;18.33;;;6.87;;
75297;SDS011;63896;45.990;18.688;2023-05-29T02:33:16;13.45;;;6.90;;
75297;SDS011;63896;45.990;18.688;2023-05-29T02:36:19;10.75;;;7.03;;
75297;SDS011;63896;45.990;18.688;2023-05-29T02:39:21;10.73;;;6.57;;
75297;SDS011;63896;45.990;18.688;2023-05-29T02:42:24;9.57;;;6.47;;
75297;SDS011;63896;45.990;18.688;2023-05-29T02:45:27;13.27;;;6.87;;
75297;SDS011;63896;45.990;18.688;2023-05-29T02:48:30;15.35;;;7.32;;
75297;SDS011;63896;45.990;18.688;2023-05-29T02:51:33;10.18;;;6.93;;
75297;SDS011;63896;45.990;18.688;2023-05-29T02:54:37;11.13;;;6.75;;
75297;SDS011;63896;45.990;18.688;2023-05-29T02:57:43;12.32;;;7.10;;
75297;SDS011;63896;45.990;18.688;2023-05-29T03:00:46;9.23;;;6.33;;
75297;SDS011;63896;45.990;18.688;2023-05-29T03:03:50;10.32;;;7.13;;
75297;SDS011;63896;45.990;18.688;2023-05-29T03:06:53;11.18;;;7.05;;
75297;SDS011;63896;45.990;18.688;2023-05-29T03:09:56;13.77;;;6.85;;
75297;SDS011;63896;45.990;18.688;2023-05-29T03:13:01;10.55;;;6.55;;
75297;SDS011;63896;45.990;18.688;2023-05-29T03:16:04;12.97;;;6.20;;
75297;SDS011;63896;45.990;18.688;2023-05-29T03:19:07;13.70;;;6.35;;
75297;SDS011;63896;45.990;18.688;2023-05-29T03:22:10;12.40;;;5.97;;
75297;SDS011;63896;45.990;18.688;2023-05-29T03:25:13;13.25;;;6.55;;
75297;SDS011;63896;45.990;18.688;2023-05-29T03:28:19;13.95;;;6.28;;
75297;SDS011;63896;45.990;18.688;2023-05-29T03:31:22;12.30;;;6.60;;
75297;SDS011;63896;45.990;18.688;2023-05-29T03:34:25;13.15;;;6.63;;
75297;SDS011;63896;45.990;18.688;2023-05-29T03:37:32;13.82;;;6.63;;
75297;SDS011;63896;45.990;18.688;2023-05-29T03:40:35;9.73;;;6.55;;
75297;SDS011;63896;45.990;18.688;2023-05-29T03:43:39;14.73;;;6.30;;
75297;SDS011;63896;45.990;18.688;2023-05-29T03:46:41;10.67;;;6.07;;
75297;SDS011;63896;45.990;18.688;2023-05-29T03:49:45;10.68;;;6.72;;
75297;SDS011;63896;45.990;18.688;2023-05-29T03:52:48;12.48;;;6.45;;
75297;SDS011;63896;45.990;18.688;2023-05-29T03:55:51;13.55;;;6.72;;
75297;SDS011;63896;45.990;18.688;2023-05-29T03:58:55;17.70;;;6.90;;
75297;SDS011;63896;45.990;18.688;2023-05-29T04:01:57;14.47;;;6.57;;
75297;SDS011;63896;45.990;18.688;2023-05-29T04:05:01;13.35;;;6.65;;
75297;SDS011;63896;45.990;18.688;2023-05-29T04:08:03;15.88;;;6.30;;
75297;SDS011;63896;45.990;18.688;2023-05-29T04:11:17;10.75;;;6.85;;
75297;SDS011;63896;45.990;18.688;2023-05-29T04:14:23;11.48;;;6.88;;
75297;SDS011;63896;45.990;18.688;2023-05-29T04:17:26;12.27;;;5.97;;
75297;SDS011;63896;45.990;18.688;2023-05-29T04:20:29;8.18;;;5.75;;
75297;SDS011;63896;45.990;18.688;2023-05-29T04:23:33;12.52;;;6.18;;
75297;SDS011;63896;45.990;18.688;2023-05-29T04:26:37;12.60;;;6.78;;
75297;SDS011;63896;45.990;18.688;2023-05-29T04:29:43;11.88;;;6.50;;
75297;SDS011;63896;45.990;18.688;2023-05-29T04:32:47;12.70;;;6.40;;
75297;SDS011;63896;45.990;18.688;2023-05-29T04:35:51;10.90;;;6.53;;
75297;SDS011;63896;45.990;18.688;2023-05-29T04:38:55;12.05;;;6.13;;
75297;SDS011;63896;45.990;18.688;2023-05-29T04:42:00;13.20;;;6.38;;
75297;SDS011;63896;45.990;18.688;2023-05-29T04:45:04;12.93;;;6.13;;
75297;SDS011;63896;45.990;18.688;2023-05-29T04:48:10;12.50;;;7.40;;
75297;SDS011;63896;45.990;18.688;2023-05-29T04:51:13;12.27;;;6.80;;
75297;SDS011;63896;45.990;18.688;2023-05-29T04:54:17;14.18;;;6.45;;
75297;SDS011;63896;45.990;18.688;2023-05-29T04:57:19;13.10;;;6.68;;
75297;SDS011;63896;45.990;18.688;2023-05-29T05:00:23;13.25;;;6.20;;
75297;SDS011;63896;45.990;18.688;2023-05-29T05:03:27;12.97;;;6.37;;
75297;SDS011;63896;45.990;18.688;2023-05-29T05:06:31;9.93;;;5.97;;
75297;SDS011;63896;45.990;18.688;2023-05-29T05:09:34;8.88;;;5.95;;
75297;SDS011;63896;45.990;18.688;2023-05-29T05:12:38;10.02;;;5.70;;
75297;SDS011;63896;45.990;18.688;2023-05-29T05:15:41;13.68;;;6.22;;
75297;SDS011;63896;45.990;18.688;2023-05-29T05:18:44;9.33;;;6.27;;
75297;SDS011;63896;45.990;18.688;2023-05-29T05:21:47;8.70;;;5.65;;
75297;SDS011;63896;45.990;18.688;2023-05-29T05:24:56;8.15;;;5.45;;
75297;SDS011;63896;45.990;18.688;2023-05-29T05:28:00;8.90;;;5.60;;
75297;SDS011;63896;45.990;18.688;2023-05-29T05:31:06;13.65;;;5.35;;
75297;SDS011;63896;45.990;18.688;2023-05-29T05:34:11;9.50;;;5.23;;
75297;SDS011;63896;45.990;18.688;2023-05-29T05:37:15;12.40;;;5.88;;
75297;SDS011;63896;45.990;18.688;2023-05-29T05:40:18;8.40;;;5.20;;
75297;SDS011;63896;45.990;18.688;2023-05-29T05:43:31;9.43;;;5.32;;
75297;SDS011;63896;45.990;18.688;2023-05-29T05:46:48;9.63;;;4.97;;
75297;SDS011;63896;45.990;18.688;2023-05-29T05:49:52;6.97;;;4.50;;
75297;SDS011;63896;45.990;18.688;2023-05-29T05:52:55;9.73;;;4.85;;
75297;SDS011;63896;45.990;18.688;2023-05-29T05:55:58;6.00;;;4.57;;
75297;SDS011;63896;45.990;18.688;2023-05-29T05:59:01;7.78;;;4.80;;
75297;SDS011;63896;45.990;18.688;2023-05-29T06:02:03;11.60;;;5.22;;
75297;SDS011;63896;45.990;18.688;2023-05-29T06:05:11;8.60;;;4.77;;
75297;SDS011;63896;45.990;18.688;2023-05-29T06:08:13;9.18;;;4.88;;
75297;SDS011;63896;45.990;18.688;2023-05-29T06:11:18;6.68;;;4.20;;
75297;SDS011;63896;45.990;18.688;2023-05-29T06:14:23;6.68;;;4.32;;
75297;SDS011;63896;45.990;18.688;2023-05-29T06:17:27;7.03;;;4.65;;
75297;SDS011;63896;45.990;18.688;2023-05-29T06:20:31;7.17;;;4.47;;
75297;SDS011;63896;45.990;18.688;2023-05-29T06:23:35;8.10;;;4.57;;
75297;SDS011;63896;45.990;18.688;2023-05-29T06:26:39;6.85;;;4.43;;
75297;SDS011;63896;45.990;18.688;2023-05-29T06:29:43;5.03;;;4.20;;
75297;SDS011;63896;45.990;18.688;2023-05-29T06:32:46;8.38;;;4.30;;
75297;SDS011;63896;45.990;18.688;2023-05-29T06:35:49;5.57;;;4.30;;
75297;SDS011;63896;45.990;18.688;2023-05-29T06:38:52;8.40;;;5.10;;
75297;SDS011;63896;45.990;18.688;2023-05-29T06:41:56;6.38;;;4.53;;
75297;SDS011;63896;45.990;18.688;2023-05-29T06:44:58;8.27;;;4.28;;
75297;SDS011;63896;45.990;18.688;2023-05-29T06:48:01;7.28;;;4.50;;
75297;SDS011;63896;45.990;18.688;2023-05-29T06:51:04;8.20;;;4.93;;
75297;SDS011;63896;45.990;18.688;2023-05-29T06:54:23;7.95;;;4.75;;
75297;SDS011;63896;45.990;18.688;2023-05-29T06:57:25;9.65;;;4.82;;
75297;SDS011;63896;45.990;18.688;2023-05-29T07:00:28;7.38;;;4.85;;
75297;SDS011;63896;45.990;18.688;2023-05-29T07:03:54;5.03;;;3.90;;
75297;SDS011;63896;45.990;18.688;2023-05-29T07:06:57;6.27;;;4.50;;
75297;SDS011;63896;45.990;18.688;2023-05-29T07:10:00;10.57;;;5.40;;
75297;SDS011;63896;45.990;18.688;2023-05-29T07:13:04;7.53;;;4.95;;
75297;SDS011;63896;45.990;18.688;2023-05-29T07:16:08;9.07;;;5.32;;
75297;SDS011;63896;45.990;18.688;2023-05-29T07:19:30;6.22;;;4.72;;
75297;SDS011;63896;45.990;18.688;2023-05-29T07:22:36;8.27;;;5.13;;
75297;SDS011;63896;45.990;18.688;2023-05-29T07:25:39;7.18;;;4.80;;
75297;SDS011;63896;45.990;18.688;2023-05-29T07:28:44;9.15;;;4.43;;
75297;SDS011;63896;45.990;18.688;2023-05-29T07:31:47;5.75;;;4.35;;
75297;SDS011;63896;45.990;18.688;2023-05-29T07:34:50;7.00;;;4.78;;
75297;SDS011;63896;45.990;18.688;2023-05-29T07:37:53;10.63;;;4.93;;
75297;SDS011;63896;45.990;18.688;2023-05-29T07:40:58;6.13;;;4.82;;
75297;SDS011;63896;45.990;18.688;2023-05-29T07:44:11;6.82;;;4.30;;
75297;SDS011;63896;45.990;18.688;2023-05-29T07:47:14;7.47;;;4.43;;
75297;SDS011;63896;45.990;18.688;2023-05-29T07:50:21;7.80;;;4.28;;
75297;SDS011;63896;45.990;18.688;2023-05-29T07:53:24;8.27;;;4.60;;
75297;SDS011;63896;45.990;18.688;2023-05-29T07:56:27;9.65;;;4.40;;
75297;SDS011;63896;45.990;18.688;2023-05-29T07:59:31;7.53;;;4.03;;
75297;SDS011;63896;45.990;18.688;2023-05-29T08:02:35;4.35;;;3.50;;
75297;SDS011;63896;45.990;18.688;2023-05-29T08:06:10;3.90;;;3.33;;
75297;SDS011;63896;45.990;18.688;2023-05-29T08:09:14;8.77;;;3.87;;
75297;SDS011;63896;45.990;18.688;2023-05-29T08:12:17;7.70;;;4.35;;
75297;SDS011;63896;45.990;18.688;2023-05-29T08:15:20;6.93;;;3.90;;
75297;SDS011;63896;45.990;18.688;2023-05-29T08:18:26;6.85;;;3.40;;
75297;SDS011;63896;45.990;18.688;2023-05-29T08:21:32;7.70;;;4.00;;
75297;SDS011;63896;45.990;18.688;2023-05-29T08:24:35;4.73;;;3.47;;
75297;SDS011;63896;45.990;18.688;2023-05-29T08:27:38;6.63;;;3.67;;
75297;SDS011;63896;45.990;18.688;2023-05-29T08:30:40;6.95;;;3.58;;
75297;SDS011;63896;45.990;18.688;2023-05-29T08:33:43;7.47;;;4.05;;
75297;SDS011;63896;45.990;18.688;2023-05-29T08:36:46;6.15;;;3.67;;
75297;SDS011;63896;45.990;18.688;2023-05-29T08:39:49;5.57;;;4.10;;
75297;SDS011;63896;45.990;18.688;2023-05-29T08:46:14;5.72;;;3.85;;
75297;SDS011;63896;45.990;18.688;2023-05-29T08:49:20;4.85;;;3.45;;
75297;SDS011;63896;45.990;18.688;2023-05-29T08:52:24;4.88;;;3.70;;
75297;SDS011;63896;45.990;18.688;2023-05-29T08:55:27;5.60;;;3.17;;
75297;SDS011;63896;45.990;18.688;2023-05-29T08:58:31;5.72;;;3.65;;
75297;SDS011;63896;45.990;18.688;2023-05-29T09:01:35;6.47;;;4.05;;
75297;SDS011;63896;45.990;18.688;2023-05-29T09:04:41;5.40;;;3.45;;
75297;SDS011;63896;45.990;18.688;2023-05-29T09:07:47;7.10;;;3.55;;
75297;SDS011;63896;45.990;18.688;2023-05-29T09:10:51;4.77;;;3.67;;
75297;SDS011;63896;45.990;18.688;2023-05-29T09:13:54;5.68;;;3.85;;
75297;SDS011;63896;45.990;18.688;2023-05-29T09:16:59;6.63;;;4.40;;
75297;SDS011;63896;45.990;18.688;2023-05-29T09:20:02;5.85;;;3.60;;
75297;SDS011;63896;45.990;18.688;2023-05-29T09:23:09;9.02;;;3.80;;
75297;SDS011;63896;45.990;18.688;2023-05-29T09:26:13;7.67;;;3.90;;
75297;SDS011;63896;45.990;18.688;2023-05-29T09:29:16;7.57;;;3.60;;
75297;SDS011;63896;45.990;18.688;2023-05-29T09:32:19;6.47;;;4.30;;
75297;SDS011;63896;45.990;18.688;2023-05-29T09:35:22;7.60;;;3.90;;
75297;SDS011;63896;45.990;18.688;2023-05-29T09:38:25;5.43;;;3.95;;
75297;SDS011;63896;45.990;18.688;2023-05-29T09:41:48;7.13;;;4.10;;
75297;SDS011;63896;45.990;18.688;2023-05-29T09:44:51;6.03;;;3.75;;
75297;SDS011;63896;45.990;18.688;2023-05-29T09:47:54;5.45;;;3.88;;
75297;SDS011;63896;45.990;18.688;2023-05-29T09:50:57;6.63;;;4.00;;
75297;SDS011;63896;45.990;18.688;2023-05-29T09:54:12;5.13;;;3.55;;
75297;SDS011;63896;45.990;18.688;2023-05-29T09:57:18;5.13;;;3.43;;
75297;SDS011;63896;45.990;18.688;2023-05-29T10:00:21;6.13;;;3.50;;
75297;SDS011;63896;45.990;18.688;2023-05-29T10:03:24;4.50;;;2.83;;
75297;SDS011;63896;45.990;18.688;2023-05-29T10:06:27;4.57;;;3.38;;
75297;SDS011;63896;45.990;18.688;2023-05-29T10:09:33;6.90;;;4.22;;
75297;SDS011;63896;45.990;18.688;2023-05-29T10:12:37;7.73;;;4.20;;
75297;SDS011;63896;45.990;18.688;2023-05-29T10:15:43;8.32;;;4.30;;
75297;SDS011;63896;45.990;18.688;2023-05-29T10:18:49;6.50;;;4.47;;
75297;SDS011;63896;45.990;18.688;2023-05-29T10:22:00;8.65;;;4.53;;
75297;SDS011;63896;45.990;18.688;2023-05-29T10:25:04;6.13;;;4.07;;
75297;SDS011;63896;45.990;18.688;2023-05-29T10:28:09;5.40;;;4.50;;
75297;SDS011;63896;45.990;18.688;2023-05-29T10:31:33;8.70;;;5.35;;
75297;SDS011;63896;45.990;18.688;2023-05-29T10:38:11;8.45;;;6.53;;
75297;SDS011;63896;45.990;18.688;2023-05-29T10:47:36;7.40;;;5.47;;
75297;SDS011;63896;45.990;18.688;2023-05-29T10:50:42;6.57;;;4.97;;
75297;SDS011;63896;45.990;18.688;2023-05-29T10:53:47;7.75;;;5.47;;
75297;SDS011;63896;45.990;18.688;2023-05-29T10:56:56;7.90;;;6.03;;
75297;SDS011;63896;45.990;18.688;2023-05-29T11:00:05;9.60;;;6.20;;
75297;SDS011;63896;45.990;18.688;2023-05-29T11:03:11;9.10;;;5.35;;
75297;SDS011;63896;45.990;18.688;2023-05-29T11:06:21;6.35;;;5.30;;
75297;SDS011;63896;45.990;18.688;2023-05-29T11:12:55;7.70;;;6.03;;
75297;SDS011;63896;45.990;18.688;2023-05-29T11:16:05;7.73;;;5.53;;
75297;SDS011;63896;45.990;18.688;2023-05-29T11:19:08;8.73;;;5.57;;
75297;SDS011;63896;45.990;18.688;2023-05-29T11:22:16;8.00;;;5.78;;
75297;SDS011;63896;45.990;18.688;2023-05-29T11:25:28;6.85;;;5.40;;
75297;SDS011;63896;45.990;18.688;2023-05-29T11:28:32;8.55;;;6.30;;
75297;SDS011;63896;45.990;18.688;2023-05-29T11:31:35;7.37;;;5.57;;
75297;SDS011;63896;45.990;18.688;2023-05-29T11:34:40;6.85;;;5.25;;
75297;SDS011;63896;45.990;18.688;2023-05-29T11:37:44;8.73;;;5.78;;
75297;SDS011;63896;45.990;18.688;2023-05-29T11:40:49;5.82;;;4.60;;
75297;SDS011;63896;45.990;18.688;2023-05-29T11:44:02;7.65;;;5.50;;
75297;SDS011;63896;45.990;18.688;2023-05-29T11:47:10;8.73;;;5.33;;
75297;SDS011;63896;45.990;18.688;2023-05-29T11:50:19;6.18;;;5.30;;
75297;SDS011;63896;45.990;18.688;2023-05-29T11:53:23;6.05;;;5.35;;
75297;SDS011;63896;45.990;18.688;2023-05-29T11:56:28;6.72;;;5.43;;
75297;SDS011;63896;45.990;18.688;2023-05-29T11:59:32;5.57;;;4.63;;
75297;SDS011;63896;45.990;18.688;2023-05-29T12:02:38;6.13;;;4.87;;
75297;SDS011;63896;45.990;18.688;2023-05-29T12:05:45;8.95;;;6.13;;
75297;SDS011;63896;45.990;18.688;2023-05-29T12:08:51;11.38;;;8.32;;
75297;SDS011;63896;45.990;18.688;2023-05-29T12:11:54;5.80;;;5.20;;
75297;SDS011;63896;45.990;18.688;2023-05-29T12:15:06;8.18;;;6.30;;
75297;SDS011;63896;45.990;18.688;2023-05-29T12:18:10;6.50;;;5.20;;
75297;SDS011;63896;45.990;18.688;2023-05-29T12:21:13;7.28;;;6.25;;
75297;SDS011;63896;45.990;18.688;2023-05-29T12:24:18;8.63;;;7.18;;
75297;SDS011;63896;45.990;18.688;2023-05-29T12:27:24;6.82;;;5.53;;
75297;SDS011;63896;45.990;18.688;2023-05-29T12:30:28;7.10;;;5.38;;
75297;SDS011;63896;45.990;18.688;2023-05-29T12:33:35;7.23;;;4.97;;
75297;SDS011;63896;45.990;18.688;2023-05-29T12:36:42;5.70;;;3.97;;
75297;SDS011;63896;45.990;18.688;2023-05-29T12:40:08;3.20;;;2.80;;
75297;SDS011;63896;45.990;18.688;2023-05-29T12:43:20;9.85;;;5.07;;
75297;SDS011;63896;45.990;18.688;2023-05-29T12:46:26;8.95;;;5.63;;
75297;SDS011;63896;45.990;18.688;2023-05-29T12:49:30;9.37;;;5.10;;
75297;SDS011;63896;45.990;18.688;2023-05-29T12:52:39;5.22;;;4.25;;
75297;SDS011;63896;45.990;18.688;2023-05-29T12:55:43;5.90;;;3.85;;
75297;SDS011;63896;45.990;18.688;2023-05-29T12:58:48;3.78;;;3.40;;
75297;SDS011;63896;45.990;18.688;2023-05-29T13:01:53;3.70;;;3.30;;
75297;SDS011;63896;45.990;18.688;2023-05-29T13:04:56;4.00;;;3.20;;
75297;SDS011;63896;45.990;18.688;2023-05-29T13:07:58;5.30;;;3.33;;
75297;SDS011;63896;45.990;18.688;2023-05-29T13:11:02;5.15;;;2.60;;
75297;SDS011;63896;45.990;18.688;2023-05-29T13:14:05;3.17;;;2.75;;
75297;SDS011;63896;45.990;18.688;2023-05-29T13:17:07;2.72;;;2.13;;
75297;SDS011;63896;45.990;18.688;2023-05-29T13:20:11;4.87;;;2.10;;
75297;SDS011;63896;45.990;18.688;2023-05-29T13:23:15;3.45;;;2.10;;
75297;SDS011;63896;45.990;18.688;2023-05-29T13:26:18;2.45;;;1.88;;
75297;SDS011;63896;45.990;18.688;2023-05-29T13:29:20;5.18;;;2.00;;
75297;SDS011;63896;45.990;18.688;2023-05-29T13:32:23;4.22;;;2.00;;
75297;SDS011;63896;45.990;18.688;2023-05-29T13:35:26;2.50;;;2.03;;
75297;SDS011;63896;45.990;18.688;2023-05-29T13:38:29;3.25;;;2.70;;
75297;SDS011;63896;45.990;18.688;2023-05-29T13:41:32;2.83;;;2.33;;
75297;SDS011;63896;45.990;18.688;2023-05-29T13:44:37;3.35;;;2.47;;
75297;SDS011;63896;45.990;18.688;2023-05-29T13:47:41;3.88;;;2.90;;
75297;SDS011;63896;45.990;18.688;2023-05-29T13:50:43;3.97;;;3.30;;
75297;SDS011;63896;45.990;18.688;2023-05-29T13:53:46;3.63;;;2.90;;
75297;SDS011;63896;45.990;18.688;2023-05-29T13:56:49;3.97;;;2.83;;
75297;SDS011;63896;45.990;18.688;2023-05-29T13:59:52;4.10;;;3.28;;
75297;SDS011;63896;45.990;18.688;2023-05-29T14:02:55;6.15;;;3.40;;
75297;SDS011;63896;45.990;18.688;2023-05-29T14:05:58;6.87;;;4.30;;
75297;SDS011;63896;45.990;18.688;2023-05-29T14:09:01;7.47;;;4.30;;
75297;SDS011;63896;45.990;18.688;2023-05-29T14:12:04;6.20;;;4.50;;
75297;SDS011;63896;45.990;18.688;2023-05-29T14:15:10;9.00;;;4.70;;
75297;SDS011;63896;45.990;18.688;2023-05-29T14:18:13;8.30;;;5.47;;
75297;SDS011;63896;45.990;18.688;2023-05-29T14:21:16;7.03;;;5.37;;
75297;SDS011;63896;45.990;18.688;2023-05-29T14:24:18;6.65;;;4.60;;
75297;SDS011;63896;45.990;18.688;2023-05-29T14:27:22;5.28;;;3.78;;
75297;SDS011;63896;45.990;18.688;2023-05-29T14:30:25;4.18;;;3.72;;
75297;SDS011;63896;45.990;18.688;2023-05-29T14:33:28;4.53;;;3.60;;
75297;SDS011;63896;45.990;18.688;2023-05-29T14:36:30;4.43;;;3.73;;
75297;SDS011;63896;45.990;18.688;2023-05-29T14:39:33;3.85;;;3.40;;
75297;SDS011;63896;45.990;18.688;2023-05-29T14:42:36;4.82;;;3.22;;
75297;SDS011;63896;45.990;18.688;2023-05-29T14:45:39;5.30;;;3.50;;
75297;SDS011;63896;45.990;18.688;2023-05-29T14:48:42;5.35;;;3.50;;
75297;SDS011;63896;45.990;18.688;2023-05-29T14:51:44;4.00;;;3.23;;
75297;SDS011;63896;45.990;18.688;2023-05-29T14:54:47;4.63;;;3.60;;
75297;SDS011;63896;45.990;18.688;2023-05-29T14:57:50;3.83;;;3.47;;
75297;SDS011;63896;45.990;18.688;2023-05-29T15:00:53;4.15;;;3.10;;
75297;SDS011;63896;45.990;18.688;2023-05-29T15:03:56;4.25;;;3.33;;
75297;SDS011;63896;45.990;18.688;2023-05-29T15:06:59;4.70;;;3.50;;
75297;SDS011;63896;45.990;18.688;2023-05-29T15:10:08;6.28;;;4.05;;
75297;SDS011;63896;45.990;18.688;2023-05-29T15:13:11;5.40;;;3.25;;
75297;SDS011;63896;45.990;18.688;2023-05-29T15:16:14;5.00;;;2.72;;
75297;SDS011;63896;45.990;18.688;2023-05-29T15:19:17;3.53;;;2.63;;
75297;SDS011;63896;45.990;18.688;2023-05-29T15:22:20;5.07;;;2.67;;
75297;SDS011;63896;45.990;18.688;2023-05-29T15:25:23;2.97;;;2.65;;
75297;SDS011;63896;45.990;18.688;2023-05-29T15:28:26;3.83;;;2.90;;
75297;SDS011;63896;45.990;18.688;2023-05-29T15:31:28;3.15;;;2.85;;
75297;SDS011;63896;45.990;18.688;2023-05-29T15:34:31;3.33;;;2.63;;
75297;SDS011;63896;45.990;18.688;2023-05-29T15:37:37;7.83;;;3.07;;
75297;SDS011;63896;45.990;18.688;2023-05-29T15:40:40;3.88;;;2.78;;
75297;SDS011;63896;45.990;18.688;2023-05-29T15:43:43;4.55;;;3.20;;
75297;SDS011;63896;45.990;18.688;2023-05-29T15:46:46;4.80;;;3.20;;
75297;SDS011;63896;45.990;18.688;2023-05-29T15:49:49;4.32;;;2.60;;
75297;SDS011;63896;45.990;18.688;2023-05-29T15:52:52;5.60;;;3.03;;
75297;SDS011;63896;45.990;18.688;2023-05-29T15:55:57;5.45;;;3.25;;
75297;SDS011;63896;45.990;18.688;2023-05-29T15:59:00;4.05;;;3.35;;
75297;SDS011;63896;45.990;18.688;2023-05-29T16:02:05;5.28;;;3.10;;
75297;SDS011;63896;45.990;18.688;2023-05-29T16:05:08;4.07;;;3.20;;
75297;SDS011;63896;45.990;18.688;2023-05-29T16:08:11;4.57;;;3.20;;
75297;SDS011;63896;45.990;18.688;2023-05-29T16:11:14;4.68;;;3.47;;
75297;SDS011;63896;45.990;18.688;2023-05-29T16:14:17;4.75;;;3.22;;
75297;SDS011;63896;45.990;18.688;2023-05-29T16:17:20;5.57;;;3.42;;
75297;SDS011;63896;45.990;18.688;2023-05-29T16:20:23;3.38;;;3.03;;
75297;SDS011;63896;45.990;18.688;2023-05-29T16:23:27;4.67;;;3.30;;
75297;SDS011;63896;45.990;18.688;2023-05-29T16:26:30;5.43;;;3.70;;
75297;SDS011;63896;45.990;18.688;2023-05-29T16:29:37;4.40;;;3.50;;
75297;SDS011;63896;45.990;18.688;2023-05-29T16:32:40;4.30;;;3.90;;
75297;SDS011;63896;45.990;18.688;2023-05-29T16:35:43;5.53;;;3.30;;
75297;SDS011;63896;45.990;18.688;2023-05-29T16:38:48;3.80;;;3.30;;
75297;SDS011;63896;45.990;18.688;2023-05-29T16:41:52;3.55;;;3.05;;
75297;SDS011;63896;45.990;18.688;2023-05-29T16:44:55;5.13;;;2.95;;
75297;SDS011;63896;45.990;18.688;2023-05-29T16:47:58;4.50;;;2.88;;
75297;SDS011;63896;45.990;18.688;2023-05-29T16:51:01;3.15;;;2.10;;
75297;SDS011;63896;45.990;18.688;2023-05-29T16:54:04;4.13;;;2.40;;
75297;SDS011;63896;45.990;18.688;2023-05-29T16:57:09;4.25;;;2.72;;
75297;SDS011;63896;45.990;18.688;2023-05-29T17:00:12;4.88;;;2.70;;
75297;SDS011;63896;45.990;18.688;2023-05-29T17:03:15;5.43;;;2.70;;
75297;SDS011;63896;45.990;18.688;2023-05-29T17:06:18;4.47;;;2.65;;
75297;SDS011;63896;45.990;18.688;2023-05-29T17:09:21;3.10;;;2.60;;
75297;SDS011;63896;45.990;18.688;2023-05-29T17:12:29;3.17;;;2.20;;
75297;SDS011;63896;45.990;18.688;2023-05-29T17:15:32;4.57;;;2.33;;
75297;SDS011;63896;45.990;18.688;2023-05-29T17:18:35;4.30;;;2.30;;
75297;SDS011;63896;45.990;18.688;2023-05-29T17:21:37;3.83;;;2.40;;
75297;SDS011;63896;45.990;18.688;2023-05-29T17:24:40;3.10;;;2.33;;
75297;SDS011;63896;45.990;18.688;2023-05-29T17:27:43;2.40;;;2.20;;
75297;SDS011;63896;45.990;18.688;2023-05-29T17:30:46;2.95;;;2.28;;
75297;SDS011;63896;45.990;18.688;2023-05-29T17:33:49;3.30;;;2.28;;
75297;SDS011;63896;45.990;18.688;2023-05-29T17:36:52;3.30;;;2.45;;
75297;SDS011;63896;45.990;18.688;2023-05-29T17:39:55;2.90;;;2.33;;
75297;SDS011;63896;45.990;18.688;2023-05-29T17:42:57;2.20;;;2.00;;
75297;SDS011;63896;45.990;18.688;2023-05-29T17:46:00;2.63;;;2.10;;
75297;SDS011;63896;45.990;18.688;2023-05-29T17:49:04;2.83;;;2.28;;
75297;SDS011;63896;45.990;18.688;2023-05-29T17:52:07;3.60;;;2.30;;
75297;SDS011;63896;45.990;18.688;2023-05-29T17:55:10;3.33;;;2.03;;
75297;SDS011;63896;45.990;18.688;2023-05-29T17:58:13;3.25;;;2.60;;
75297;SDS011;63896;45.990;18.688;2023-05-29T18:01:16;2.75;;;2.30;;
75297;SDS011;63896;45.990;18.688;2023-05-29T18:04:19;3.22;;;2.40;;
75297;SDS011;63896;45.990;18.688;2023-05-29T18:07:22;4.63;;;2.47;;
75297;SDS011;63896;45.990;18.688;2023-05-29T18:10:25;2.80;;;2.17;;
75297;SDS011;63896;45.990;18.688;2023-05-29T18:13:28;3.67;;;2.60;;
75297;SDS011;63896;45.990;18.688;2023-05-29T18:16:35;9.07;;;2.92;;
75297;SDS011;63896;45.990;18.688;2023-05-29T18:19:38;4.25;;;2.63;;
75297;SDS011;63896;45.990;18.688;2023-05-29T18:22:42;4.60;;;2.88;;
75297;SDS011;63896;45.990;18.688;2023-05-29T18:25:45;4.20;;;2.77;;
75297;SDS011;63896;45.990;18.688;2023-05-29T18:28:48;4.55;;;3.40;;
75297;SDS011;63896;45.990;18.688;2023-05-29T18:31:51;5.10;;;3.55;;
75297;SDS011;63896;45.990;18.688;2023-05-29T18:34:54;5.97;;;4.15;;
75297;SDS011;63896;45.990;18.688;2023-05-29T18:37:57;7.25;;;2.97;;
75297;SDS011;63896;45.990;18.688;2023-05-29T18:41:00;5.20;;;3.10;;